sensor_id;sensor_type;location;lat;lon;timestamp;temperature;humidity
11043;DHT22;5574;48.786;10.120;2022-10-28T00:01:22;11.90;99.90
11043;DHT22;5574;48.786;10.120;2022-10-28T00:03:51;11.90;99.90
11043;DHT22;5574;48.786;10.120;2022-10-28T00:06:20;11.90;99.90
11043;DHT22;5574;48.786;10.120;2022-10-28T00:08:48;11.90;99.90
11043;DHT22;5574;48.786;10.120;2022-10-28T00:11:17;11.90;99.90
11043;DHT22;5574;48.786;10.120;2022-10-28T00:13:44;11.90;99.90
11043;DHT22;5574;48.786;10.120;2022-10-28T00:16:12;11.90;99.90
11043;DHT22;5574;48.786;10.120;2022-10-28T00:18:40;11.90;99.90
11043;DHT22;5574;48.786;10.120;2022-10-28T00:21:10;11.90;99.90
11043;DHT22;5574;48.786;10.120;2022-10-28T00:23:37;11.90;99.90
11043;DHT22;5574;48.786;10.120;2022-10-28T00:28:41;11.90;99.90
11043;DHT22;5574;48.786;10.120;2022-10-28T00:31:09;11.90;99.90
11043;DHT22;5574;48.786;10.120;2022-10-28T00:33:36;11.90;99.90
11043;DHT22;5574;48.786;10.120;2022-10-28T00:36:11;11.90;99.90
11043;DHT22;5574;48.786;10.120;2022-10-28T00:38:39;11.80;99.90
11043;DHT22;5574;48.786;10.120;2022-10-28T00:41:06;11.80;99.90
11043;DHT22;5574;48.786;10.120;2022-10-28T00:43:35;11.80;99.90
11043;DHT22;5574;48.786;10.120;2022-10-28T00:46:08;11.70;99.90
11043;DHT22;5574;48.786;10.120;2022-10-28T00:48:37;11.70;99.90
11043;DHT22;5574;48.786;10.120;2022-10-28T00:51:07;11.70;99.90
11043;DHT22;5574;48.786;10.120;2022-10-28T00:53:34;11.70;99.90
11043;DHT22;5574;48.786;10.120;2022-10-28T00:56:05;11.60;99.90
11043;DHT22;5574;48.786;10.120;2022-10-28T00:58:33;11.70;99.90
11043;DHT22;5574;48.786;10.120;2022-10-28T01:01:00;11.70;99.90
11043;DHT22;5574;48.786;10.120;2022-10-28T01:03:28;11.70;99.90
11043;DHT22;5574;48.786;10.120;2022-10-28T01:05:56;11.60;99.90
11043;DHT22;5574;48.786;10.120;2022-10-28T01:08:23;11.60;99.90
11043;DHT22;5574;48.786;10.120;2022-10-28T01:11:08;11.60;99.90
11043;DHT22;5574;48.786;10.120;2022-10-28T01:13:45;11.60;99.90
11043;DHT22;5574;48.786;10.120;2022-10-28T01:16:24;11.60;99.90
11043;DHT22;5574;48.786;10.120;2022-10-28T01:19:04;11.60;99.90
11043;DHT22;5574;48.786;10.120;2022-10-28T01:24:44;11.60;99.90
11043;DHT22;5574;48.786;10.120;2022-10-28T01:27:28;11.70;99.90
11043;DHT22;5574;48.786;10.120;2022-10-28T01:30:07;11.70;99.90
11043;DHT22;5574;48.786;10.120;2022-10-28T01:32:48;11.70;99.90
11043;DHT22;5574;48.786;10.120;2022-10-28T01:35:21;11.60;99.90
11043;DHT22;5574;48.786;10.120;2022-10-28T01:38:01;11.60;99.90
11043;DHT22;5574;48.786;10.120;2022-10-28T01:40:36;11.60;99.90
11043;DHT22;5574;48.786;10.120;2022-10-28T01:43:09;11.60;99.90
11043;DHT22;5574;48.786;10.120;2022-10-28T01:45:42;11.50;99.90
11043;DHT22;5574;48.786;10.120;2022-10-28T01:48:13;11.60;99.90
11043;DHT22;5574;48.786;10.120;2022-10-28T01:50:45;11.50;99.90
11043;DHT22;5574;48.786;10.120;2022-10-28T01:53:15;11.50;99.90
11043;DHT22;5574;48.786;10.120;2022-10-28T01:55:46;11.50;99.90
11043;DHT22;5574;48.786;10.120;2022-10-28T01:58:19;11.50;99.90
11043;DHT22;5574;48.786;10.120;2022-10-28T02:00:48;11.40;99.90
11043;DHT22;5574;48.786;10.120;2022-10-28T02:03:16;11.40;99.90
11043;DHT22;5574;48.786;10.120;2022-10-28T02:05:45;11.40;99.90
11043;DHT22;5574;48.786;10.120;2022-10-28T02:08:36;11.40;99.90
11043;DHT22;5574;48.786;10.120;2022-10-28T02:11:24;11.40;99.90
11043;DHT22;5574;48.786;10.120;2022-10-28T02:14:01;11.30;99.90
11043;DHT22;5574;48.786;10.120;2022-10-28T02:16:38;11.20;99.90
11043;DHT22;5574;48.786;10.120;2022-10-28T02:19:16;11.20;99.90
11043;DHT22;5574;48.786;10.120;2022-10-28T02:21:51;11.10;99.90
11043;DHT22;5574;48.786;10.120;2022-10-28T02:24:23;11.10;99.90
11043;DHT22;5574;48.786;10.120;2022-10-28T02:27:04;11.10;99.90
11043;DHT22;5574;48.786;10.120;2022-10-28T02:29:38;11.10;99.90
11043;DHT22;5574;48.786;10.120;2022-10-28T02:32:09;11.10;99.90
11043;DHT22;5574;48.786;10.120;2022-10-28T02:34:42;11.10;99.90
11043;DHT22;5574;48.786;10.120;2022-10-28T02:37:12;11.10;99.90
11043;DHT22;5574;48.786;10.120;2022-10-28T02:39:45;11.10;99.90
11043;DHT22;5574;48.786;10.120;2022-10-28T02:42:16;11.10;99.90
11043;DHT22;5574;48.786;10.120;2022-10-28T02:44:47;11.10;99.90
11043;DHT22;5574;48.786;10.120;2022-10-28T02:47:18;11.00;99.90
11043;DHT22;5574;48.786;10.120;2022-10-28T02:49:52;11.00;99.90
11043;DHT22;5574;48.786;10.120;2022-10-28T02:52:21;11.00;99.90
11043;DHT22;5574;48.786;10.120;2022-10-28T02:54:53;11.00;99.90
11043;DHT22;5574;48.786;10.120;2022-10-28T02:57:23;11.00;99.90
11043;DHT22;5574;48.786;10.120;2022-10-28T02:59:52;10.90;99.90
11043;DHT22;5574;48.786;10.120;2022-10-28T03:02:19;10.90;99.90
11043;DHT22;5574;48.786;10.120;2022-10-28T03:04:47;11.00;99.90
11043;DHT22;5574;48.786;10.120;2022-10-28T03:07:14;11.00;99.90
11043;DHT22;5574;48.786;10.120;2022-10-28T03:09:40;10.90;99.90
11043;DHT22;5574;48.786;10.120;2022-10-28T03:12:07;10.90;99.90
11043;DHT22;5574;48.786;10.120;2022-10-28T03:14:34;10.80;99.90
11043;DHT22;5574;48.786;10.120;2022-10-28T03:17:01;10.90;99.90
11043;DHT22;5574;48.786;10.120;2022-10-28T03:19:28;10.90;99.90
11043;DHT22;5574;48.786;10.120;2022-10-28T03:21:56;10.90;99.90
11043;DHT22;5574;48.786;10.120;2022-10-28T03:24:23;10.80;99.90
11043;DHT22;5574;48.786;10.120;2022-10-28T03:26:49;10.80;99.90
11043;DHT22;5574;48.786;10.120;2022-10-28T03:29:16;10.80;99.90
11043;DHT22;5574;48.786;10.120;2022-10-28T03:31:43;10.80;99.90
11043;DHT22;5574;48.786;10.120;2022-10-28T03:34:10;10.80;99.90
11043;DHT22;5574;48.786;10.120;2022-10-28T03:36:36;10.90;99.90
11043;DHT22;5574;48.786;10.120;2022-10-28T03:39:04;10.80;99.90
11043;DHT22;5574;48.786;10.120;2022-10-28T03:41:31;10.80;99.90
11043;DHT22;5574;48.786;10.120;2022-10-28T03:43:58;10.80;99.90
11043;DHT22;5574;48.786;10.120;2022-10-28T03:46:25;10.80;99.90
11043;DHT22;5574;48.786;10.120;2022-10-28T03:48:52;10.80;99.90
11043;DHT22;5574;48.786;10.120;2022-10-28T03:51:18;10.80;99.90
11043;DHT22;5574;48.786;10.120;2022-10-28T03:53:45;10.80;99.90
11043;DHT22;5574;48.786;10.120;2022-10-28T03:56:13;10.80;99.90
11043;DHT22;5574;48.786;10.120;2022-10-28T03:58:40;10.80;99.90
11043;DHT22;5574;48.786;10.120;2022-10-28T04:01:06;10.90;99.90
11043;DHT22;5574;48.786;10.120;2022-10-28T04:03:33;10.90;99.90
11043;DHT22;5574;48.786;10.120;2022-10-28T04:06:00;10.90;99.90
11043;DHT22;5574;48.786;10.120;2022-10-28T04:08:27;10.90;99.90
11043;DHT22;5574;48.786;10.120;2022-10-28T04:10:53;10.90;99.90
11043;DHT22;5574;48.786;10.120;2022-10-28T04:13:21;10.90;99.90
11043;DHT22;5574;48.786;10.120;2022-10-28T04:15:48;10.90;99.90
11043;DHT22;5574;48.786;10.120;2022-10-28T04:18:15;11.00;99.90
11043;DHT22;5574;48.786;10.120;2022-10-28T04:20:41;11.00;99.90
11043;DHT22;5574;48.786;10.120;2022-10-28T04:23:13;11.00;99.90
11043;DHT22;5574;48.786;10.120;2022-10-28T04:28:08;11.00;99.90
11043;DHT22;5574;48.786;10.120;2022-10-28T04:30:36;11.00;99.90
11043;DHT22;5574;48.786;10.120;2022-10-28T04:33:03;11.00;99.90
11043;DHT22;5574;48.786;10.120;2022-10-28T04:35:30;11.00;99.90
11043;DHT22;5574;48.786;10.120;2022-10-28T04:37:56;11.10;99.90
11043;DHT22;5574;48.786;10.120;2022-10-28T04:40:23;11.10;99.90
11043;DHT22;5574;48.786;10.120;2022-10-28T04:42:50;11.10;99.90
11043;DHT22;5574;48.786;10.120;2022-10-28T04:45:16;11.10;99.90
11043;DHT22;5574;48.786;10.120;2022-10-28T04:47:44;11.10;99.90
11043;DHT22;5574;48.786;10.120;2022-10-28T04:50:11;11.10;99.90
11043;DHT22;5574;48.786;10.120;2022-10-28T04:52:38;11.10;99.90
11043;DHT22;5574;48.786;10.120;2022-10-28T04:55:05;11.10;99.90
11043;DHT22;5574;48.786;10.120;2022-10-28T04:57:32;11.10;99.90
11043;DHT22;5574;48.786;10.120;2022-10-28T04:59:58;11.10;99.90
11043;DHT22;5574;48.786;10.120;2022-10-28T05:02:25;11.10;99.90
11043;DHT22;5574;48.786;10.120;2022-10-28T05:04:53;11.10;99.90
11043;DHT22;5574;48.786;10.120;2022-10-28T05:07:24;11.10;99.90
11043;DHT22;5574;48.786;10.120;2022-10-28T05:09:51;11.10;99.90
11043;DHT22;5574;48.786;10.120;2022-10-28T05:12:18;11.10;99.90
11043;DHT22;5574;48.786;10.120;2022-10-28T05:14:44;11.10;99.90
11043;DHT22;5574;48.786;10.120;2022-10-28T05:17:11;11.10;99.90
11043;DHT22;5574;48.786;10.120;2022-10-28T05:19:38;11.10;99.90
11043;DHT22;5574;48.786;10.120;2022-10-28T05:22:06;11.20;99.90
11043;DHT22;5574;48.786;10.120;2022-10-28T05:24:32;11.20;99.90
11043;DHT22;5574;48.786;10.120;2022-10-28T05:26:59;11.20;99.90
11043;DHT22;5574;48.786;10.120;2022-10-28T05:29:26;11.20;99.90
11043;DHT22;5574;48.786;10.120;2022-10-28T05:31:52;11.20;99.90
11043;DHT22;5574;48.786;10.120;2022-10-28T05:34:19;11.20;99.90
11043;DHT22;5574;48.786;10.120;2022-10-28T05:36:46;11.20;99.90
11043;DHT22;5574;48.786;10.120;2022-10-28T05:39:16;11.20;99.90
11043;DHT22;5574;48.786;10.120;2022-10-28T05:41:42;11.20;99.90
11043;DHT22;5574;48.786;10.120;2022-10-28T05:44:09;11.30;99.90
11043;DHT22;5574;48.786;10.120;2022-10-28T05:46:36;11.30;99.90
11043;DHT22;5574;48.786;10.120;2022-10-28T05:49:02;11.40;99.90
11043;DHT22;5574;48.786;10.120;2022-10-28T05:51:29;11.40;99.90
11043;DHT22;5574;48.786;10.120;2022-10-28T05:53:56;11.40;99.90
11043;DHT22;5574;48.786;10.120;2022-10-28T05:56:24;11.40;99.90
11043;DHT22;5574;48.786;10.120;2022-10-28T05:58:51;11.40;99.90
11043;DHT22;5574;48.786;10.120;2022-10-28T06:01:17;11.40;99.90
11043;DHT22;5574;48.786;10.120;2022-10-28T06:03:44;11.40;99.90
11043;DHT22;5574;48.786;10.120;2022-10-28T06:06:11;11.40;99.90
11043;DHT22;5574;48.786;10.120;2022-10-28T06:08:37;11.40;99.90
11043;DHT22;5574;48.786;10.120;2022-10-28T06:11:04;11.40;99.90
11043;DHT22;5574;48.786;10.120;2022-10-28T06:13:32;11.40;99.90
11043;DHT22;5574;48.786;10.120;2022-10-28T06:15:59;11.40;99.90
11043;DHT22;5574;48.786;10.120;2022-10-28T06:18:26;11.50;99.90
11043;DHT22;5574;48.786;10.120;2022-10-28T06:20:53;11.50;99.90
11043;DHT22;5574;48.786;10.120;2022-10-28T06:23:21;11.60;99.90
11043;DHT22;5574;48.786;10.120;2022-10-28T06:25:47;11.60;99.90
11043;DHT22;5574;48.786;10.120;2022-10-28T06:28:14;11.70;99.90
11043;DHT22;5574;48.786;10.120;2022-10-28T06:30:42;11.60;99.90
11043;DHT22;5574;48.786;10.120;2022-10-28T06:33:09;11.70;99.90
11043;DHT22;5574;48.786;10.120;2022-10-28T06:35:36;11.70;99.90
11043;DHT22;5574;48.786;10.120;2022-10-28T06:38:02;11.70;99.90
11043;DHT22;5574;48.786;10.120;2022-10-28T06:40:29;11.70;99.90
11043;DHT22;5574;48.786;10.120;2022-10-28T06:42:57;11.70;99.90
11043;DHT22;5574;48.786;10.120;2022-10-28T06:45:24;11.70;99.90
11043;DHT22;5574;48.786;10.120;2022-10-28T06:47:55;11.80;99.90
11043;DHT22;5574;48.786;10.120;2022-10-28T06:50:22;11.80;99.90
11043;DHT22;5574;48.786;10.120;2022-10-28T06:52:49;11.80;99.90
11043;DHT22;5574;48.786;10.120;2022-10-28T06:55:16;11.90;99.90
11043;DHT22;5574;48.786;10.120;2022-10-28T06:58:01;11.90;99.90
11043;DHT22;5574;48.786;10.120;2022-10-28T07:00:28;11.90;99.90
11043;DHT22;5574;48.786;10.120;2022-10-28T07:02:56;11.90;99.90
11043;DHT22;5574;48.786;10.120;2022-10-28T07:05:24;12.00;99.90
11043;DHT22;5574;48.786;10.120;2022-10-28T07:07:52;12.00;99.90
11043;DHT22;5574;48.786;10.120;2022-10-28T07:10:19;12.00;99.90
11043;DHT22;5574;48.786;10.120;2022-10-28T07:12:46;12.00;99.90
11043;DHT22;5574;48.786;10.120;2022-10-28T07:15:13;12.10;99.90
11043;DHT22;5574;48.786;10.120;2022-10-28T07:17:39;12.00;99.90
11043;DHT22;5574;48.786;10.120;2022-10-28T07:20:09;12.10;99.90
11043;DHT22;5574;48.786;10.120;2022-10-28T07:22:36;12.10;99.90
11043;DHT22;5574;48.786;10.120;2022-10-28T07:25:03;12.10;99.90
11043;DHT22;5574;48.786;10.120;2022-10-28T07:27:30;12.10;99.90
11043;DHT22;5574;48.786;10.120;2022-10-28T07:29:57;12.20;99.90
11043;DHT22;5574;48.786;10.120;2022-10-28T07:32:23;12.20;99.90
11043;DHT22;5574;48.786;10.120;2022-10-28T07:34:50;12.20;99.90
11043;DHT22;5574;48.786;10.120;2022-10-28T07:37:18;12.30;99.90
11043;DHT22;5574;48.786;10.120;2022-10-28T07:39:45;12.30;99.90
11043;DHT22;5574;48.786;10.120;2022-10-28T07:42:12;12.30;99.90
11043;DHT22;5574;48.786;10.120;2022-10-28T07:44:38;12.40;99.90
11043;DHT22;5574;48.786;10.120;2022-10-28T07:47:05;12.50;99.90
11043;DHT22;5574;48.786;10.120;2022-10-28T07:49:32;12.50;99.90
11043;DHT22;5574;48.786;10.120;2022-10-28T07:51:59;12.60;99.90
11043;DHT22;5574;48.786;10.120;2022-10-28T07:54:27;12.60;99.90
11043;DHT22;5574;48.786;10.120;2022-10-28T07:56:56;12.70;99.90
11043;DHT22;5574;48.786;10.120;2022-10-28T07:59:23;12.80;99.90
11043;DHT22;5574;48.786;10.120;2022-10-28T08:01:50;12.80;99.90
11043;DHT22;5574;48.786;10.120;2022-10-28T08:04:16;12.80;99.90
11043;DHT22;5574;48.786;10.120;2022-10-28T08:06:43;12.90;99.90
11043;DHT22;5574;48.786;10.120;2022-10-28T08:09:10;12.90;99.90
11043;DHT22;5574;48.786;10.120;2022-10-28T08:11:38;13.00;99.90
11043;DHT22;5574;48.786;10.120;2022-10-28T08:14:05;13.00;99.90
11043;DHT22;5574;48.786;10.120;2022-10-28T08:16:31;13.00;99.90
11043;DHT22;5574;48.786;10.120;2022-10-28T08:18:58;13.10;99.90
11043;DHT22;5574;48.786;10.120;2022-10-28T08:21:25;13.20;99.90
11043;DHT22;5574;48.786;10.120;2022-10-28T08:23:52;13.20;99.90
11043;DHT22;5574;48.786;10.120;2022-10-28T08:28:49;13.30;99.90
11043;DHT22;5574;48.786;10.120;2022-10-28T08:31:17;13.40;99.90
11043;DHT22;5574;48.786;10.120;2022-10-28T08:33:44;13.40;99.90
11043;DHT22;5574;48.786;10.120;2022-10-28T08:36:12;13.40;99.90
11043;DHT22;5574;48.786;10.120;2022-10-28T08:38:41;13.50;99.90
11043;DHT22;5574;48.786;10.120;2022-10-28T08:41:23;13.60;99.90
11043;DHT22;5574;48.786;10.120;2022-10-28T08:44:11;13.60;99.90
11043;DHT22;5574;48.786;10.120;2022-10-28T08:46:53;13.70;99.90
11043;DHT22;5574;48.786;10.120;2022-10-28T08:49:23;13.80;99.90
11043;DHT22;5574;48.786;10.120;2022-10-28T08:51:53;13.80;99.90
11043;DHT22;5574;48.786;10.120;2022-10-28T08:54:26;13.80;99.90
11043;DHT22;5574;48.786;10.120;2022-10-28T08:56:57;13.80;99.90
11043;DHT22;5574;48.786;10.120;2022-10-28T08:59:30;13.90;99.90
11043;DHT22;5574;48.786;10.120;2022-10-28T09:01:59;13.90;99.90
11043;DHT22;5574;48.786;10.120;2022-10-28T09:04:32;14.00;99.90
11043;DHT22;5574;48.786;10.120;2022-10-28T09:07:03;14.00;99.90
11043;DHT22;5574;48.786;10.120;2022-10-28T09:09:31;14.00;99.90
11043;DHT22;5574;48.786;10.120;2022-10-28T09:12:13;14.00;99.90
11043;DHT22;5574;48.786;10.120;2022-10-28T09:15:06;14.00;99.90
11043;DHT22;5574;48.786;10.120;2022-10-28T09:17:43;14.00;99.90
11043;DHT22;5574;48.786;10.120;2022-10-28T09:20:17;14.00;99.90
11043;DHT22;5574;48.786;10.120;2022-10-28T09:22:50;14.00;99.90
11043;DHT22;5574;48.786;10.120;2022-10-28T09:25:22;14.00;99.90
11043;DHT22;5574;48.786;10.120;2022-10-28T09:28:04;14.00;99.90
11043;DHT22;5574;48.786;10.120;2022-10-28T09:30:40;14.00;99.90
11043;DHT22;5574;48.786;10.120;2022-10-28T09:33:21;14.00;99.90
11043;DHT22;5574;48.786;10.120;2022-10-28T09:35:54;14.10;99.90
11043;DHT22;5574;48.786;10.120;2022-10-28T09:38:26;14.10;99.90
11043;DHT22;5574;48.786;10.120;2022-10-28T09:40:59;14.10;99.90
11043;DHT22;5574;48.786;10.120;2022-10-28T09:43:29;14.10;99.90
11043;DHT22;5574;48.786;10.120;2022-10-28T09:46:04;14.20;99.90
11043;DHT22;5574;48.786;10.120;2022-10-28T09:48:35;14.20;99.90
11043;DHT22;5574;48.786;10.120;2022-10-28T09:51:03;14.20;99.90
11043;DHT22;5574;48.786;10.120;2022-10-28T09:53:38;14.30;99.90
11043;DHT22;5574;48.786;10.120;2022-10-28T09:56:06;14.30;99.90
11043;DHT22;5574;48.786;10.120;2022-10-28T09:58:33;14.30;99.90
11043;DHT22;5574;48.786;10.120;2022-10-28T10:01:02;14.40;99.90
11043;DHT22;5574;48.786;10.120;2022-10-28T10:03:30;14.50;99.90
11043;DHT22;5574;48.786;10.120;2022-10-28T10:06:00;14.50;99.90
11043;DHT22;5574;48.786;10.120;2022-10-28T10:08:28;14.70;99.90
11043;DHT22;5574;48.786;10.120;2022-10-28T10:10:58;14.80;99.90
11043;DHT22;5574;48.786;10.120;2022-10-28T10:13:29;15.10;99.90
11043;DHT22;5574;48.786;10.120;2022-10-28T10:16:03;15.20;99.90
11043;DHT22;5574;48.786;10.120;2022-10-28T10:18:31;15.20;99.90
11043;DHT22;5574;48.786;10.120;2022-10-28T10:20:58;15.20;99.90
11043;DHT22;5574;48.786;10.120;2022-10-28T10:23:30;15.20;99.90
11043;DHT22;5574;48.786;10.120;2022-10-28T10:25:58;15.20;99.90
11043;DHT22;5574;48.786;10.120;2022-10-28T10:28:27;15.10;99.90
11043;DHT22;5574;48.786;10.120;2022-10-28T10:30:56;15.10;99.90
11043;DHT22;5574;48.786;10.120;2022-10-28T10:33:28;15.10;99.90
11043;DHT22;5574;48.786;10.120;2022-10-28T10:35:59;15.30;99.90
11043;DHT22;5574;48.786;10.120;2022-10-28T10:38:28;15.60;99.90
11043;DHT22;5574;48.786;10.120;2022-10-28T10:40:55;16.00;99.90
11043;DHT22;5574;48.786;10.120;2022-10-28T10:43:29;16.50;99.90
11043;DHT22;5574;48.786;10.120;2022-10-28T10:46:02;17.00;99.90
11043;DHT22;5574;48.786;10.120;2022-10-28T10:48:31;17.40;99.90
11043;DHT22;5574;48.786;10.120;2022-10-28T10:51:04;17.80;99.90
11043;DHT22;5574;48.786;10.120;2022-10-28T10:53:32;18.00;99.90
11043;DHT22;5574;48.786;10.120;2022-10-28T10:56:01;18.10;99.90
11043;DHT22;5574;48.786;10.120;2022-10-28T10:58:31;17.90;99.90
11043;DHT22;5574;48.786;10.120;2022-10-28T11:01:00;17.70;99.90
11043;DHT22;5574;48.786;10.120;2022-10-28T11:03:32;17.50;99.90
11043;DHT22;5574;48.786;10.120;2022-10-28T11:06:02;17.30;99.90
11043;DHT22;5574;48.786;10.120;2022-10-28T11:08:35;17.10;99.90
11043;DHT22;5574;48.786;10.120;2022-10-28T11:11:14;17.00;99.90
11043;DHT22;5574;48.786;10.120;2022-10-28T11:13:45;16.80;99.90
11043;DHT22;5574;48.786;10.120;2022-10-28T11:16:20;16.80;99.90
11043;DHT22;5574;48.786;10.120;2022-10-28T11:18:51;16.70;99.90
11043;DHT22;5574;48.786;10.120;2022-10-28T11:21:32;16.70;99.90
11043;DHT22;5574;48.786;10.120;2022-10-28T11:24:21;16.60;99.90
11043;DHT22;5574;48.786;10.120;2022-10-28T11:26:55;16.60;99.90
11043;DHT22;5574;48.786;10.120;2022-10-28T11:29:24;16.60;99.90
11043;DHT22;5574;48.786;10.120;2022-10-28T11:32:05;16.70;99.90
11043;DHT22;5574;48.786;10.120;2022-10-28T11:34:53;16.70;99.90
11043;DHT22;5574;48.786;10.120;2022-10-28T11:37:28;17.00;99.90
11043;DHT22;5574;48.786;10.120;2022-10-28T11:40:05;17.50;99.90
11043;DHT22;5574;48.786;10.120;2022-10-28T11:42:42;17.70;99.90
11043;DHT22;5574;48.786;10.120;2022-10-28T11:45:15;17.80;99.90
11043;DHT22;5574;48.786;10.120;2022-10-28T11:48:00;18.00;99.90
11043;DHT22;5574;48.786;10.120;2022-10-28T11:50:51;18.30;99.90
11043;DHT22;5574;48.786;10.120;2022-10-28T11:56:26;18.80;99.90
11043;DHT22;5574;48.786;10.120;2022-10-28T11:59:02;19.10;99.90
11043;DHT22;5574;48.786;10.120;2022-10-28T12:01:40;19.20;99.90
11043;DHT22;5574;48.786;10.120;2022-10-28T12:04:36;19.40;99.90
11043;DHT22;5574;48.786;10.120;2022-10-28T12:07:25;19.50;99.90
11043;DHT22;5574;48.786;10.120;2022-10-28T12:10:13;19.80;99.90
11043;DHT22;5574;48.786;10.120;2022-10-28T12:12:46;19.80;99.90
11043;DHT22;5574;48.786;10.120;2022-10-28T12:15:22;19.90;99.90
11043;DHT22;5574;48.786;10.120;2022-10-28T12:17:57;20.00;99.90
11043;DHT22;5574;48.786;10.120;2022-10-28T12:20:29;20.20;99.90
11043;DHT22;5574;48.786;10.120;2022-10-28T12:23:00;20.40;99.90
11043;DHT22;5574;48.786;10.120;2022-10-28T12:25:29;20.40;99.90
11043;DHT22;5574;48.786;10.120;2022-10-28T12:28:01;20.50;99.90
11043;DHT22;5574;48.786;10.120;2022-10-28T12:30:31;20.40;99.90
11043;DHT22;5574;48.786;10.120;2022-10-28T12:33:05;20.30;99.90
11043;DHT22;5574;48.786;10.120;2022-10-28T12:35:35;20.10;99.90
11043;DHT22;5574;48.786;10.120;2022-10-28T12:38:12;19.90;99.90
11043;DHT22;5574;48.786;10.120;2022-10-28T12:40:44;19.80;99.90
11043;DHT22;5574;48.786;10.120;2022-10-28T12:43:19;19.90;99.90
11043;DHT22;5574;48.786;10.120;2022-10-28T12:45:49;20.00;99.90
11043;DHT22;5574;48.786;10.120;2022-10-28T12:48:23;20.00;99.90
11043;DHT22;5574;48.786;10.120;2022-10-28T12:50:56;20.00;99.90
11043;DHT22;5574;48.786;10.120;2022-10-28T12:53:33;19.90;99.90
11043;DHT22;5574;48.786;10.120;2022-10-28T12:56:02;19.80;99.90
11043;DHT22;5574;48.786;10.120;2022-10-28T12:58:31;19.80;99.90
11043;DHT22;5574;48.786;10.120;2022-10-28T13:01:03;19.70;99.90
11043;DHT22;5574;48.786;10.120;2022-10-28T13:03:30;19.60;99.90
11043;DHT22;5574;48.786;10.120;2022-10-28T13:06:09;19.50;99.90
11043;DHT22;5574;48.786;10.120;2022-10-28T13:09:04;19.40;99.90
11043;DHT22;5574;48.786;10.120;2022-10-28T13:11:59;19.30;99.90
11043;DHT22;5574;48.786;10.120;2022-10-28T13:14:55;19.30;99.90
11043;DHT22;5574;48.786;10.120;2022-10-28T13:17:37;19.30;99.90
11043;DHT22;5574;48.786;10.120;2022-10-28T13:20:17;19.40;99.90
11043;DHT22;5574;48.786;10.120;2022-10-28T13:22:55;19.40;99.90
11043;DHT22;5574;48.786;10.120;2022-10-28T13:25:38;19.50;99.90
11043;DHT22;5574;48.786;10.120;2022-10-28T13:28:11;19.50;99.90
11043;DHT22;5574;48.786;10.120;2022-10-28T13:30:51;19.70;99.90
11043;DHT22;5574;48.786;10.120;2022-10-28T13:33:22;19.70;99.90
11043;DHT22;5574;48.786;10.120;2022-10-28T13:35:49;19.70;99.90
11043;DHT22;5574;48.786;10.120;2022-10-28T13:38:21;19.80;99.90
11043;DHT22;5574;48.786;10.120;2022-10-28T13:41:10;19.80;99.90
11043;DHT22;5574;48.786;10.120;2022-10-28T13:44:22;19.70;99.90
11043;DHT22;5574;48.786;10.120;2022-10-28T13:50:33;19.70;99.90
11043;DHT22;5574;48.786;10.120;2022-10-28T13:56:28;19.80;99.90
11043;DHT22;5574;48.786;10.120;2022-10-28T13:58:59;19.80;99.90
11043;DHT22;5574;48.786;10.120;2022-10-28T14:02:03;19.80;99.90
11043;DHT22;5574;48.786;10.120;2022-10-28T14:04:31;19.80;99.90
11043;DHT22;5574;48.786;10.120;2022-10-28T14:07:17;19.80;99.90
11043;DHT22;5574;48.786;10.120;2022-10-28T14:09:47;19.80;99.90
11043;DHT22;5574;48.786;10.120;2022-10-28T14:12:25;19.80;99.90
11043;DHT22;5574;48.786;10.120;2022-10-28T14:14:58;19.80;99.90
11043;DHT22;5574;48.786;10.120;2022-10-28T14:17:35;19.80;99.90
11043;DHT22;5574;48.786;10.120;2022-10-28T14:20:04;19.70;99.90
11043;DHT22;5574;48.786;10.120;2022-10-28T14:22:34;19.70;99.90
11043;DHT22;5574;48.786;10.120;2022-10-28T14:25:02;19.70;99.90
11043;DHT22;5574;48.786;10.120;2022-10-28T14:27:50;19.60;99.90
11043;DHT22;5574;48.786;10.120;2022-10-28T14:30:21;19.60;99.90
11043;DHT22;5574;48.786;10.120;2022-10-28T14:39:02;19.40;99.90
11043;DHT22;5574;48.786;10.120;2022-10-28T14:44:45;19.30;99.90
11043;DHT22;5574;48.786;10.120;2022-10-28T14:47:35;19.30;99.90
11043;DHT22;5574;48.786;10.120;2022-10-28T14:50:13;19.10;99.90
11043;DHT22;5574;48.786;10.120;2022-10-28T14:52:42;19.00;99.90
11043;DHT22;5574;48.786;10.120;2022-10-28T14:55:19;19.00;99.90
11043;DHT22;5574;48.786;10.120;2022-10-28T14:57:47;18.90;99.90
11043;DHT22;5574;48.786;10.120;2022-10-28T15:00:18;18.80;99.90
11043;DHT22;5574;48.786;10.120;2022-10-28T15:02:45;18.70;99.90
11043;DHT22;5574;48.786;10.120;2022-10-28T15:05:15;18.70;99.90
11043;DHT22;5574;48.786;10.120;2022-10-28T15:07:43;18.60;99.90
11043;DHT22;5574;48.786;10.120;2022-10-28T15:10:14;18.60;99.90
11043;DHT22;5574;48.786;10.120;2022-10-28T15:12:42;18.50;99.90
11043;DHT22;5574;48.786;10.120;2022-10-28T15:15:19;18.40;99.90
11043;DHT22;5574;48.786;10.120;2022-10-28T15:17:46;18.40;99.90
11043;DHT22;5574;48.786;10.120;2022-10-28T15:20:20;18.40;99.90
11043;DHT22;5574;48.786;10.120;2022-10-28T15:23:14;18.30;99.90
11043;DHT22;5574;48.786;10.120;2022-10-28T15:31:12;18.20;99.90
11043;DHT22;5574;48.786;10.120;2022-10-28T15:33:41;18.10;99.90
11043;DHT22;5574;48.786;10.120;2022-10-28T15:36:11;18.00;99.90
11043;DHT22;5574;48.786;10.120;2022-10-28T15:38:39;18.00;99.90
11043;DHT22;5574;48.786;10.120;2022-10-28T15:41:38;17.90;99.90
11043;DHT22;5574;48.786;10.120;2022-10-28T15:44:30;17.90;99.90
11043;DHT22;5574;48.786;10.120;2022-10-28T15:46:59;17.80;99.90
11043;DHT22;5574;48.786;10.120;2022-10-28T15:49:34;17.80;99.90
11043;DHT22;5574;48.786;10.120;2022-10-28T15:52:21;17.70;99.90
11043;DHT22;5574;48.786;10.120;2022-10-28T15:54:54;17.70;99.90
11043;DHT22;5574;48.786;10.120;2022-10-28T15:57:23;17.70;99.90
11043;DHT22;5574;48.786;10.120;2022-10-28T16:00:19;17.70;99.90
11043;DHT22;5574;48.786;10.120;2022-10-28T16:02:52;17.60;99.90
11043;DHT22;5574;48.786;10.120;2022-10-28T16:10:43;17.50;99.90
11043;DHT22;5574;48.786;10.120;2022-10-28T16:13:16;17.50;99.90
11043;DHT22;5574;48.786;10.120;2022-10-28T16:18:38;17.40;99.90
11043;DHT22;5574;48.786;10.120;2022-10-28T16:21:06;17.30;99.90
11043;DHT22;5574;48.786;10.120;2022-10-28T16:23:37;17.30;99.90
11043;DHT22;5574;48.786;10.120;2022-10-28T16:26:05;17.30;99.90
11043;DHT22;5574;48.786;10.120;2022-10-28T16:28:34;17.30;99.90
11043;DHT22;5574;48.786;10.120;2022-10-28T16:31:01;17.30;99.90
11043;DHT22;5574;48.786;10.120;2022-10-28T16:33:32;17.30;99.90
11043;DHT22;5574;48.786;10.120;2022-10-28T16:35:59;17.30;99.90
11043;DHT22;5574;48.786;10.120;2022-10-28T16:38:28;17.20;99.90
11043;DHT22;5574;48.786;10.120;2022-10-28T16:40:55;17.10;99.90